Time,TemperatureF,DewpointF,PressureIn,WindDirection,WindDirectionDegrees,WindSpeedMPH,WindSpeedGustMPH,Humidity,HourlyPrecipIn,Conditions,Clouds,dailyrainin,SoftwareType,DateUTC
2013-10-03 00:29:00,48.6,42.1,29.93,ENE,73,0.0,0.0,78,0.00,,---,0.00,VWS V14.00,2013-10-03 04:29:00,
2013-10-03 00:59:00,46.5,41.9,29.94,ENE,73,0.0,0.0,84,0.00,,---,0.00,VWS V14.00,2013-10-03 04:59:00,
2013-10-03 01:29:00,45.4,41.5,29.95,ENE,73,0.0,0.0,86,0.00,,---,0.00,VWS V14.00,2013-10-03 05:29:00,
2013-10-03 01:59:00,44.6,41.6,29.97,ENE,73,0.0,0.0,89,0.00,,---,0.00,VWS V14.00,2013-10-03 05:59:00,
2013-10-03 02:29:00,43.7,41.2,29.97,ENE,73,0.0,0.0,91,0.00,,---,0.00,VWS V14.00,2013-10-03 06:29:00,
2013-10-03 02:59:00,43.5,41.3,29.98,ENE,73,0.0,0.0,92,0.00,,---,0.00,VWS V14.00,2013-10-03 06:59:00,
2013-10-03 03:29:00,43.6,41.7,29.98,ENE,73,0.0,0.0,93,0.00,,---,0.00,VWS V14.00,2013-10-03 07:29:00,
2013-10-03 03:59:00,45.4,42.6,30.00,ENE,73,0.0,0.0,90,0.00,,---,0.00,VWS V14.00,2013-10-03 07:59:00,
2013-10-03 04:29:00,44.0,41.3,30.00,ENE,73,0.0,0.0,90,0.00,,---,0.00,VWS V14.00,2013-10-03 08:29:00,
2013-10-03 04:59:00,43.2,41.6,30.01,ENE,73,0.0,0.0,94,0.00,,---,0.00,VWS V14.00,2013-10-03 08:59:00,
2013-10-03 05:29:00,42.2,40.6,30.01,ENE,73,0.0,0.0,94,0.00,,---,0.00,VWS V14.00,2013-10-03 09:29:00,
2013-10-03 05:59:00,41.8,40.5,30.03,ENE,73,0.0,0.0,95,0.00,,---,0.00,VWS V14.00,2013-10-03 09:59:00,
2013-10-03 06:29:00,41.5,40.2,30.03,ENE,73,0.0,0.0,95,0.00,,---,0.00,VWS V14.00,2013-10-03 10:29:00,
2013-10-03 06:59:00,40.7,39.7,30.04,ENE,73,0.0,0.0,96,0.00,,---,0.00,VWS V14.00,2013-10-03 10:59:00,
2013-10-03 07:29:00,40.7,39.9,30.05,ENE,73,0.0,0.0,97,0.00,,---,0.00,VWS V14.00,2013-10-03 11:29:00,
2013-10-03 07:59:00,41.1,40.3,30.06,ENE,73,0.0,0.0,97,0.00,,---,0.00,VWS V14.00,2013-10-03 11:59:00,
2013-10-03 08:29:00,43.4,42.9,30.07,ENE,73,0.0,0.0,98,0.00,,---,0.00,VWS V14.00,2013-10-03 12:29:00,
2013-10-03 08:59:00,49.5,46.4,30.08,WSW,248,3.0,4.0,89,0.00,,---,0.00,VWS V14.00,2013-10-03 12:59:00,
2013-10-03 09:29:00,55.5,48.4,30.09,South,171,0.0,2.0,77,0.00,,---,0.00,VWS V14.00,2013-10-03 13:29:00,
2013-10-03 09:59:00,58.1,47.2,30.09,East,90,0.0,1.0,67,0.00,,---,0.00,VWS V14.00,2013-10-03 13:59:00,
2013-10-03 10:29:00,61.8,46.0,30.09,NW,321,0.0,4.0,56,0.00,,---,0.00,VWS V14.00,2013-10-03 14:29:00,
2013-10-03 10:59:00,63.6,45.2,30.08,NW,306,5.0,5.0,51,0.00,,---,0.00,VWS V14.00,2013-10-03 14:59:00,
2013-10-03 11:29:00,65.1,43.3,30.08,NNE,22,1.0,3.0,45,0.00,,---,0.00,VWS V14.00,2013-10-03 15:29:00,
2013-10-03 11:59:00,64.6,43.4,30.07,ENE,78,0.0,3.0,46,0.00,,---,0.00,VWS V14.00,2013-10-03 15:59:00,
2013-10-03 12:29:00,64.2,43.0,30.06,SE,134,1.0,3.0,46,0.00,,---,0.00,VWS V14.00,2013-10-03 16:29:00,
2013-10-03 12:59:00,65.7,44.4,30.06,NW,311,0.0,3.0,46,0.00,,---,0.00,VWS V14.00,2013-10-03 16:59:00,
2013-10-03 13:29:00,66.7,44.7,30.05,NE,46,0.0,1.0,45,0.00,,---,0.00,VWS V14.00,2013-10-03 17:29:00,
2013-10-03 13:59:00,68.7,45.3,30.05,ESE,117,1.0,6.0,43,0.00,,---,0.00,VWS V14.00,2013-10-03 17:59:00,
2013-10-03 14:29:00,68.5,45.1,30.04,SW,225,1.0,1.0,43,0.00,,---,0.00,VWS V14.00,2013-10-03 18:29:00,
2013-10-03 14:59:00,67.3,45.2,30.03,SSE,149,1.0,5.0,45,0.00,,---,0.00,VWS V14.00,2013-10-03 18:59:00,
2013-10-03 15:29:00,66.7,44.7,30.02,NW,318,0.0,3.0,45,0.00,,---,0.00,VWS V14.00,2013-10-03 19:29:00,
2013-10-03 15:59:00,65.8,45.0,30.01,SE,132,0.0,3.0,47,0.00,,---,0.00,VWS V14.00,2013-10-03 19:59:00,
2013-10-03 16:29:00,65.0,46.5,30.01,NE,42,1.0,5.0,51,0.00,,---,0.00,VWS V14.00,2013-10-03 20:29:00,
2013-10-03 16:59:00,63.9,47.0,30.01,SW,219,0.0,1.0,54,0.00,,---,0.00,VWS V14.00,2013-10-03 20:59:00,
2013-10-03 17:29:00,62.1,47.2,30.02,East,92,0.0,1.0,58,0.00,,---,0.00,VWS V14.00,2013-10-03 21:29:00,
2013-10-03 17:59:00,60.2,47.6,30.02,East,80,0.0,0.0,63,0.00,,---,0.00,VWS V14.00,2013-10-03 21:59:00,
2013-10-03 18:29:00,58.7,47.4,30.03,SSE,148,0.0,1.0,66,0.00,,---,0.00,VWS V14.00,2013-10-03 22:29:00,
2013-10-03 18:59:00,56.9,46.5,30.03,SSE,148,0.0,0.0,68,0.00,,---,0.00,VWS V14.00,2013-10-03 22:59:00,
2013-10-03 19:29:00,55.0,46.2,30.03,SSE,148,0.0,0.0,72,0.00,,---,0.00,VWS V14.00,2013-10-03 23:29:00,
2013-10-03 19:59:00,53.2,45.8,30.05,SSE,148,0.0,0.0,76,0.00,,---,0.00,VWS V14.00,2013-10-03 23:59:00,
2013-10-03 20:29:00,52.4,46.4,30.04,SSE,148,0.0,0.0,80,0.00,,---,0.00,VWS V14.00,2013-10-04 00:29:00,
2013-10-03 20:59:00,52.5,46.8,30.05,SSE,148,0.0,0.0,81,0.00,,---,0.00,VWS V14.00,2013-10-04 00:59:00,
2013-10-03 21:29:00,53.7,47.3,30.05,SSE,148,0.0,0.0,79,0.00,,---,0.00,VWS V14.00,2013-10-04 01:29:00,
2013-10-03 21:59:00,54.6,47.5,30.05,SSE,148,0.0,0.0,77,0.00,,---,0.00,VWS V14.00,2013-10-04 01:59:00,
2013-10-03 22:29:00,55.3,47.5,30.06,North,10,0.0,0.0,75,0.00,,---,0.00,VWS V14.00,2013-10-04 02:29:00,
2013-10-03 22:59:00,55.4,48.3,30.05,WSW,250,0.0,0.0,77,0.00,,---,0.00,VWS V14.00,2013-10-04 02:59:00,
2013-10-03 23:29:00,54.7,48.0,30.05,WSW,251,0.0,0.0,78,0.00,,---,0.00,VWS V14.00,2013-10-04 03:29:00,
2013-10-03 23:59:00,54.9,48.2,30.05,WSW,251,0.0,0.0,78,0.00,,---,0.00,VWS V14.00,2013-10-04 03:59:00,